craftsman.com alexa rank chart, craftsman.com alexa rank daily changes

craftsman.com alexa rank chart, craftsman.com alexa rank daily changes

craftsman.com
Actual rank:
70 890

RANK HISTORY

Date Rank Diff
2018/05/26 70 890 -52 436
2018/05/25 123 326 +60 994
2018/05/24 62 332 -28 715
2018/05/23 91 047 +38 409
2018/05/22 52 638 -36 840
2018/05/21 89 478 -15 852
2018/05/20 105 330 -40 668
2018/05/19 145 998 +55 831
2018/05/18 90 167 -13 575
2018/05/17 103 742 -22 972
2018/05/16 126 714 +51 584
2018/05/15 75 130 +28 181
2018/05/14 46 949 -17 389
2018/05/13 64 338 -16 382
2018/05/12 80 720 -27 620
2018/05/11 108 340 +12 949
2018/05/10 95 391 +6 363
2018/05/09 89 028 -3 719
2018/05/08 92 747 +38 846
2018/05/07 53 901 -108 448
2018/05/06 162 349 +3 677
2018/05/05 158 672 +28 551
2018/05/04 130 121 -15 118
2018/05/03 145 239 +67 025
2018/05/02 78 214 -6 068
2018/05/01 84 282 +14 516
2018/04/30 69 766 -14 915
2018/04/29 84 681 -46 545
2018/04/28 131 226 +68 570
2018/04/27 62 656 -98 347
2018/04/26 161 003 +103 365
2018/04/25 57 638 -19 144
2018/04/24 76 782 +14 126
2018/04/23 62 656 -44 802
2018/04/22 107 458 -44 061
2018/04/21 151 519 +23 595
2018/04/20 127 924 -1 453
2018/04/19 129 377 +16 498
2018/04/18 112 879 +14 868
2018/04/17 98 011 +27 015
2018/04/16 70 996 -120 296
2018/04/15 191 292 +45 384
2018/04/14 145 908 +32 945
2018/04/13 112 963 -56 134
2018/04/12 169 097 +83 490
2018/04/11 85 607 -33 742
2018/04/10 119 349 -37 519
2018/04/09 156 868 +19 925
2018/04/08 136 943 +56 168
2018/04/07 80 775 -13 135
2018/04/06 93 910 -64 957
2018/04/05 158 867 +53 558
2018/04/04 105 309 +7 949
2018/04/03 97 360 -53 290
2018/04/02 150 650 +18 639
2018/04/01 132 011 +6 722
2018/03/31 125 289 -29 585
2018/03/30 154 874 -46 042
2018/03/29 200 916 +89 530
2018/03/28 111 386 +22 290
2018/03/27 89 096

WIDGET FOR YOUR SITE

DOMAINS WITH THE NEAREST RANK

Domain Rank
intrinseca.com.br 70 885
rafaelpiton.com.br 70 886
sbhepatologia.org.br 70 887
teradek.com 70 888
eslkidsworld.com 70 889
craftsman.com 70 890
518fb.com 70 891
emeraldbux.com 70 892
nissan.biz 70 893
successstory.com 70 894
bpm-power.com 70 895

DOMAINS WITH THE NEAREST RANK BY TLD .com

Domain Rank
wholesalecentral.com 70 879
clevelandbrowns.com 70 880
magna.com 70 882
teradek.com 70 888
eslkidsworld.com 70 889
craftsman.com 70 890
518fb.com 70 891
emeraldbux.com 70 892
successstory.com 70 894
bpm-power.com 70 895
webisfree.com 70 900